createdAt,value
2023-05-12T00:01:26.946Z,101573.14
2023-05-12T00:03:54.118Z,101571.71
2023-05-12T00:06:21.243Z,101571.38
2023-05-12T00:08:48.205Z,101572.55
2023-05-12T00:11:15.172Z,101575.61
2023-05-12T00:13:42.091Z,101577.50
2023-05-12T00:16:09.650Z,101577.88
2023-05-12T00:18:36.509Z,101575.45
2023-05-12T00:21:03.530Z,101577.06
2023-05-12T00:23:30.366Z,101575.14
2023-05-12T00:25:57.208Z,101575.52
2023-05-12T00:28:23.957Z,101575.21
2023-05-12T00:30:50.792Z,101573.97
2023-05-12T00:33:17.636Z,101572.27
2023-05-12T00:35:47.350Z,101575.85
2023-05-12T00:38:14.394Z,101578.94
2023-05-12T00:40:41.539Z,101582.13
2023-05-12T00:43:08.393Z,101583.31
2023-05-12T00:45:36.392Z,101580.39
2023-05-12T00:48:04.929Z,101580.59
2023-05-12T00:50:32.090Z,101582.80
2023-05-12T00:53:01.489Z,101579.36
2023-05-12T00:55:30.600Z,101580.35
2023-05-12T00:57:58.576Z,101578.14
2023-05-12T01:00:26.317Z,101580.59
2023-05-12T01:02:53.845Z,101579.92
2023-05-12T01:05:21.029Z,101580.17
2023-05-12T01:07:49.303Z,101579.88
2023-05-12T01:10:21.745Z,101581.07
2023-05-12T01:12:48.927Z,101582.41
2023-05-12T01:15:17.713Z,101579.73
2023-05-12T01:17:52.742Z,101583.17
2023-05-12T01:20:22.461Z,101582.98
2023-05-12T01:22:50.125Z,101583.88
2023-05-12T01:25:22.082Z,101588.26
2023-05-12T01:27:50.054Z,101587.58
2023-05-12T01:30:18.529Z,101582.91
2023-05-12T01:32:45.508Z,101583.05
2023-05-12T01:35:12.738Z,101577.64
2023-05-12T01:37:45.849Z,101580.72
2023-05-12T01:40:13.481Z,101580.86
2023-05-12T01:42:42.058Z,101578.60
2023-05-12T01:45:10.333Z,101580.05
2023-05-12T01:47:37.853Z,101578.52
2023-05-12T01:50:09.954Z,101580.59
2023-05-12T01:52:37.310Z,101580.27
2023-05-12T01:55:07.734Z,101577.92
2023-05-12T01:57:39.609Z,101575.23
2023-05-12T02:00:07.463Z,101573.15
2023-05-12T02:02:42.764Z,101570.91
2023-05-12T02:05:11.078Z,101576.48
2023-05-12T02:07:37.877Z,101576.98
2023-05-12T02:10:06.205Z,101573.71
2023-05-12T02:12:34.168Z,101571.71
2023-05-12T02:15:01.627Z,101571.85
2023-05-12T02:17:29.929Z,101567.11
2023-05-12T02:19:58.893Z,101572.84
2023-05-12T02:22:26.247Z,101569.46
2023-05-12T02:24:53.191Z,101570.55
2023-05-12T02:27:20.142Z,101573.95
2023-05-12T02:29:47.594Z,101578.47
2023-05-12T02:32:15.052Z,101578.84
2023-05-12T02:34:43.446Z,101580.77
2023-05-12T02:37:10.388Z,101579.21
2023-05-12T02:39:37.339Z,101583.77
2023-05-12T02:42:04.775Z,101576.84
2023-05-12T02:44:31.849Z,101575.65
2023-05-12T02:46:59.074Z,101580.52
2023-05-12T02:49:25.830Z,101582.84
2023-05-12T02:51:55.036Z,101585.98
2023-05-12T02:54:22.477Z,101585.98
2023-05-12T02:56:49.315Z,101586.01
2023-05-12T02:59:16.389Z,101580.15
2023-05-12T03:01:43.226Z,101580.40
2023-05-12T03:04:10.349Z,101584.95
2023-05-12T03:06:37.512Z,101586.11
2023-05-12T03:09:04.753Z,101587.26
2023-05-12T03:11:31.592Z,101587.13
2023-05-12T03:13:58.751Z,101585.75
2023-05-12T03:16:25.616Z,101588.98
2023-05-12T03:18:53.174Z,101587.20
2023-05-12T03:21:19.990Z,101587.97
2023-05-12T03:23:46.836Z,101591.63
2023-05-12T03:26:13.569Z,101583.10
2023-05-12T03:28:40.413Z,101588.19
2023-05-12T03:31:07.306Z,101589.46
2023-05-12T03:33:34.197Z,101591.32
2023-05-12T03:36:01.142Z,101595.04
2023-05-12T03:38:28.088Z,101598.11
2023-05-12T03:41:05.781Z,101595.83
2023-05-12T03:43:32.855Z,101595.41
2023-05-12T03:46:00.894Z,101593.75
2023-05-12T03:48:28.105Z,101597.38
2023-05-12T03:50:54.995Z,101602.09
2023-05-12T03:53:21.944Z,101602.56
2023-05-12T03:55:48.828Z,101603.38
2023-05-12T03:58:16.338Z,101599.11
2023-05-12T04:00:44.204Z,101601.97
2023-05-12T04:03:11.401Z,101602.40
2023-05-12T04:05:39.018Z,101604.69
2023-05-12T04:08:05.964Z,101603.83
2023-05-12T04:10:32.807Z,101604.42
2023-05-12T04:12:59.644Z,101604.27
2023-05-12T04:15:27.004Z,101605.13
2023-05-12T04:17:53.989Z,101607.33
2023-05-12T04:20:21.999Z,101608.27
2023-05-12T04:22:48.963Z,101605.23
2023-05-12T04:25:15.806Z,101605.44
2023-05-12T04:27:42.751Z,101608.23
2023-05-12T04:30:09.637Z,101603.38
2023-05-12T04:32:38.413Z,101606.91
2023-05-12T04:35:07.266Z,101610.58
2023-05-12T04:37:34.738Z,101612.38
2023-05-12T04:40:01.779Z,101614.25
2023-05-12T04:42:30.468Z,101612.72
2023-05-12T04:44:57.514Z,101612.17
2023-05-12T04:47:24.388Z,101611.70
2023-05-12T04:49:51.603Z,101611.75
2023-05-12T04:52:18.457Z,101612.14
2023-05-12T04:54:45.593Z,101609.98
2023-05-12T04:57:12.543Z,101611.23
2023-05-12T04:59:41.295Z,101613.88
2023-05-12T05:02:09.608Z,101615.01
2023-05-12T05:04:37.063Z,101616.29
2023-05-12T05:07:05.038Z,101616.84
2023-05-12T05:09:33.851Z,101620.58
2023-05-12T05:12:01.989Z,101619.60
2023-05-12T05:14:29.048Z,101619.75
2023-05-12T05:16:57.313Z,101616.40
2023-05-12T05:19:35.238Z,101611.88
2023-05-12T05:22:06.664Z,101613.13
2023-05-12T05:24:33.507Z,101618.95
2023-05-12T05:27:00.453Z,101616.26
2023-05-12T05:29:28.134Z,101614.91
2023-05-12T05:31:55.188Z,101618.02
2023-05-12T05:34:22.274Z,101619.44
2023-05-12T05:36:49.563Z,101622.50
2023-05-12T05:39:16.711Z,101622.59
2023-05-12T05:41:43.552Z,101629.33
2023-05-12T05:44:10.499Z,101637.21
2023-05-12T05:46:37.536Z,101636.39
2023-05-12T05:49:04.489Z,101637.35
2023-05-12T05:51:32.742Z,101634.31
2023-05-12T05:54:00.017Z,101635.70
2023-05-12T05:56:26.961Z,101646.80
2023-05-12T05:58:54.036Z,101642.41
2023-05-12T06:01:20.804Z,101638.39
2023-05-12T06:03:47.902Z,101640.98
2023-05-12T06:06:16.589Z,101645.25
2023-05-12T06:08:43.834Z,101644.71
2023-05-12T06:11:11.596Z,101647.59
2023-05-12T06:13:38.435Z,101645.73
2023-05-12T06:16:05.592Z,101650.52
2023-05-12T06:18:37.537Z,101650.98
2023-05-12T06:21:05.619Z,101659.58
2023-05-12T06:23:32.979Z,101662.02
2023-05-12T06:25:59.818Z,101660.42
2023-05-12T06:28:28.010Z,101657.47
2023-05-12T06:30:54.830Z,101658.14
2023-05-12T06:33:21.683Z,101656.99
2023-05-12T06:35:48.534Z,101647.73
2023-05-12T06:38:15.981Z,101654.70
2023-05-12T06:40:44.660Z,101649.27
2023-05-12T06:43:12.540Z,101651.15
2023-05-12T06:45:39.781Z,101651.84
2023-05-12T06:48:08.787Z,101652.32
2023-05-12T06:50:35.956Z,101655.44
2023-05-12T06:53:03.200Z,101654.48
2023-05-12T06:55:30.127Z,101657.48
2023-05-12T06:57:57.079Z,101663.70
2023-05-12T07:00:25.138Z,101665.08
2023-05-12T07:02:52.364Z,101662.20
2023-05-12T07:05:20.611Z,101670.48
2023-05-12T07:07:47.711Z,101664.77
2023-05-12T07:10:14.870Z,101666.52
2023-05-12T07:12:41.821Z,101662.90
2023-05-12T07:15:09.564Z,101664.06
2023-05-12T07:17:36.565Z,101662.59
2023-05-12T07:20:05.200Z,101661.65
2023-05-12T07:22:32.144Z,101660.02
2023-05-12T07:24:59.220Z,101659.31
2023-05-12T07:27:26.442Z,101661.29
2023-05-12T07:29:53.276Z,101666.02
2023-05-12T07:32:20.137Z,101668.04
2023-05-12T07:34:46.862Z,101663.14
2023-05-12T07:37:13.813Z,101663.30
2023-05-12T07:39:40.762Z,101659.86
2023-05-12T07:42:08.518Z,101661.58
2023-05-12T07:44:35.870Z,101661.79
2023-05-12T07:47:02.768Z,101661.53
2023-05-12T07:49:29.664Z,101664.28
2023-05-12T07:51:56.503Z,101660.56
2023-05-12T07:54:23.561Z,101652.77
2023-05-12T07:56:50.299Z,101659.89
2023-05-12T07:59:17.132Z,101651.41
2023-05-12T08:01:44.001Z,101650.35
2023-05-12T08:04:11.143Z,101655.16
2023-05-12T08:06:38.168Z,101659.48
2023-05-12T08:09:05.015Z,101656.63
2023-05-12T08:11:32.270Z,101656.36
2023-05-12T08:13:59.824Z,101656.23
2023-05-12T08:16:26.914Z,101655.73
2023-05-12T08:18:53.734Z,101659.94
2023-05-12T08:21:20.554Z,101656.65
2023-05-12T08:23:47.503Z,101656.89
2023-05-12T08:26:14.350Z,101658.73
2023-05-12T08:28:41.281Z,101655.36
2023-05-12T08:31:08.171Z,101658.84
2023-05-12T08:33:35.691Z,101660.50
2023-05-12T08:36:02.951Z,101661.41
2023-05-12T08:38:31.324Z,101659.38
2023-05-12T08:41:22.629Z,101661.56
2023-05-12T08:43:51.527Z,101663.50
2023-05-12T08:46:20.756Z,101657.46
2023-05-12T08:48:51.760Z,101663.02
2023-05-12T08:51:19.322Z,101660.81
2023-05-12T08:53:48.413Z,101656.96
2023-05-12T08:58:49.367Z,101652.30
2023-05-12T09:01:17.629Z,101658.20
2023-05-12T09:03:44.996Z,101659.64
2023-05-12T09:06:12.863Z,101651.55
2023-05-12T09:08:40.334Z,101648.30
2023-05-12T09:11:10.854Z,101645.45
2023-05-12T09:14:01.143Z,101643.82
2023-05-12T09:16:50.381Z,101650.73
2023-05-12T09:19:21.041Z,101654.14
2023-05-12T09:21:48.399Z,101649.79
2023-05-12T09:24:15.236Z,101644.36
2023-05-12T09:26:46.944Z,101647.21
2023-05-12T09:29:24.046Z,101649.92
2023-05-12T09:31:53.011Z,101642.45
2023-05-12T09:34:37.833Z,101642.61
2023-05-12T09:37:06.005Z,101639.52
2023-05-12T09:39:33.571Z,101640.53
2023-05-12T09:42:00.433Z,101640.50
2023-05-12T09:44:30.444Z,101642.95
2023-05-12T09:47:06.815Z,101641.23
2023-05-12T09:49:33.738Z,101638.19
2023-05-12T09:52:00.685Z,101634.04
2023-05-12T09:54:29.259Z,101631.80
2023-05-12T09:57:08.087Z,101629.23
2023-05-12T09:59:37.975Z,101627.60
2023-05-12T10:02:08.611Z,101630.77
2023-05-12T10:04:52.620Z,101628.57
2023-05-12T10:07:22.739Z,101620.38
2023-05-12T10:09:49.969Z,101620.19
2023-05-12T10:12:16.990Z,101621.29
2023-05-12T10:14:44.363Z,101615.48
2023-05-12T10:17:12.059Z,101610.95
2023-05-12T10:19:41.515Z,101612.49
2023-05-12T10:22:15.288Z,101612.20
2023-05-12T10:24:43.286Z,101604.34
2023-05-12T10:27:11.359Z,101611.50
2023-05-12T10:29:39.123Z,101611.04
2023-05-12T10:32:06.578Z,101603.17
2023-05-12T10:34:36.306Z,101602.23
2023-05-12T10:37:10.259Z,101599.77
2023-05-12T10:39:46.564Z,101601.86
2023-05-12T10:42:17.201Z,101607.48
2023-05-12T10:44:50.701Z,101603.73
2023-05-12T10:47:17.859Z,101598.65
2023-05-12T10:49:44.684Z,101601.59
2023-05-12T10:52:13.388Z,101611.91
2023-05-12T10:54:45.203Z,101613.73
2023-05-12T10:57:17.869Z,101608.86
2023-05-12T10:59:51.958Z,101610.88
2023-05-12T11:02:26.182Z,101606.03
2023-05-12T11:05:05.294Z,101603.96
2023-05-12T11:07:35.290Z,101600.31
2023-05-12T11:10:05.356Z,101604.44
2023-05-12T11:12:36.875Z,101600.54
2023-05-12T11:15:06.226Z,101601.98
2023-05-12T11:17:33.669Z,101597.88
2023-05-12T11:20:00.923Z,101599.80
2023-05-12T11:22:28.083Z,101595.52
2023-05-12T11:24:55.539Z,101598.25
2023-05-12T11:27:23.873Z,101595.48
2023-05-12T11:30:06.555Z,101595.89
2023-05-12T11:32:33.611Z,101593.95
2023-05-12T11:35:12.320Z,101593.41
2023-05-12T11:37:41.210Z,101588.16
2023-05-12T11:40:22.545Z,101584.19
2023-05-12T11:42:51.921Z,101587.58
2023-05-12T11:45:27.957Z,101586.30
2023-05-12T11:48:16.057Z,101587.50
2023-05-12T11:50:48.908Z,101584.05
2023-05-12T11:53:18.489Z,101587.30
2023-05-12T11:55:50.058Z,101586.24
2023-05-12T11:58:29.993Z,101585.69
2023-05-12T12:01:08.618Z,101583.91
2023-05-12T12:03:47.132Z,101581.75
2023-05-12T12:06:15.302Z,101581.31
2023-05-12T12:08:55.864Z,101575.55
2023-05-12T12:11:27.017Z,101569.46
2023-05-12T12:13:57.848Z,101569.59
2023-05-12T12:16:29.880Z,101571.42
2023-05-12T12:18:57.421Z,101566.20
2023-05-12T12:21:25.134Z,101563.63
2023-05-12T12:23:53.102Z,101569.62
2023-05-12T12:26:22.613Z,101571.73
2023-05-12T12:28:49.778Z,101570.26
2023-05-12T12:31:20.554Z,101569.99
2023-05-12T12:33:47.438Z,101568.55
2023-05-12T12:36:15.296Z,101559.03
2023-05-12T12:38:42.139Z,101555.25
2023-05-12T12:41:09.083Z,101560.35
2023-05-12T12:43:36.233Z,101556.60
2023-05-12T12:46:03.078Z,101556.48
2023-05-12T12:48:31.659Z,101555.09
2023-05-12T12:51:00.661Z,101552.34
2023-05-12T12:53:28.102Z,101549.95
2023-05-12T12:55:56.085Z,101544.45
2023-05-12T12:58:23.133Z,101547.64
2023-05-12T13:00:50.516Z,101546.27
2023-05-12T13:03:19.518Z,101549.61
2023-05-12T13:05:47.232Z,101544.65
2023-05-12T13:08:14.176Z,101549.95
2023-05-12T13:10:41.517Z,101550.59
2023-05-12T13:13:11.446Z,101550.21
2023-05-12T13:15:39.002Z,101546.45
2023-05-12T13:18:05.925Z,101552.60
2023-05-12T13:20:33.302Z,101547.35
2023-05-12T13:23:00.042Z,101546.31
2023-05-12T13:25:26.894Z,101547.70
2023-05-12T13:27:53.852Z,101544.55
2023-05-12T13:30:22.104Z,101544.02
2023-05-12T13:32:49.479Z,101536.92
2023-05-12T13:35:16.521Z,101537.94
2023-05-12T13:37:43.453Z,101537.61
2023-05-12T13:40:10.906Z,101538.73
2023-05-12T13:42:37.969Z,101531.24
2023-05-12T13:45:06.363Z,101534.36
2023-05-12T13:47:33.570Z,101537.37
2023-05-12T13:50:00.761Z,101532.31
2023-05-12T13:52:27.879Z,101531.98
2023-05-12T13:54:54.729Z,101532.96
2023-05-12T13:57:21.564Z,101530.33
2023-05-12T13:59:50.045Z,101526.64
2023-05-12T14:02:17.411Z,101529.38
2023-05-12T14:04:44.362Z,101528.67
2023-05-12T14:07:12.210Z,101528.48
2023-05-12T14:09:39.164Z,101526.73
2023-05-12T14:12:06.609Z,101523.74
2023-05-12T14:14:33.568Z,101527.83
2023-05-12T14:17:00.403Z,101525.86
2023-05-12T14:19:27.244Z,101522.33
2023-05-12T14:21:54.090Z,101522.83
2023-05-12T14:24:21.032Z,101521.34
2023-05-12T14:26:47.887Z,101522.86
2023-05-12T14:29:14.741Z,101523.24
2023-05-12T14:31:41.609Z,101524.17
2023-05-12T14:34:08.823Z,101519.56
2023-05-12T14:36:35.649Z,101520.77
2023-05-12T14:39:02.700Z,101517.49
2023-05-12T14:41:29.645Z,101521.99
2023-05-12T14:43:57.305Z,101519.27
2023-05-12T14:46:25.320Z,101517.56
2023-05-12T14:48:52.219Z,101521.59
2023-05-12T14:51:19.065Z,101517.35
2023-05-12T14:53:46.118Z,101519.77
2023-05-12T14:56:12.951Z,101522.20
2023-05-12T14:58:40.014Z,101520.67
2023-05-12T15:01:09.364Z,101519.66
2023-05-12T15:03:36.939Z,101517.06
2023-05-12T15:06:07.360Z,101518.08
2023-05-12T15:08:34.843Z,101518.59
2023-05-12T15:11:01.687Z,101518.70
2023-05-12T15:13:28.645Z,101517.21
2023-05-12T15:15:56.752Z,101516.14
2023-05-12T15:18:24.079Z,101518.02
2023-05-12T15:20:51.327Z,101514.94
2023-05-12T15:23:18.258Z,101514.02
2023-05-12T15:25:45.094Z,101513.02
2023-05-12T15:28:12.050Z,101512.11
2023-05-12T15:30:38.986Z,101508.08
2023-05-12T15:33:06.544Z,101507.75
2023-05-12T15:35:33.896Z,101502.86
2023-05-12T15:38:00.758Z,101501.52
2023-05-12T15:40:30.056Z,101499.39
2023-05-12T15:42:57.495Z,101499.27
2023-05-12T15:45:24.338Z,101502.91
2023-05-12T15:47:51.263Z,101498.43
2023-05-12T15:50:22.037Z,101498.57
2023-05-12T15:52:49.163Z,101497.63
2023-05-12T15:55:16.422Z,101498.92
2023-05-12T15:57:43.262Z,101497.21
2023-05-12T16:00:10.976Z,101496.96
2023-05-12T16:02:40.888Z,101496.59
2023-05-12T16:05:09.142Z,101493.45
2023-05-12T16:07:36.082Z,101494.14
2023-05-12T16:10:03.320Z,101492.45
2023-05-12T16:12:30.777Z,101494.99
2023-05-12T16:14:57.611Z,101496.00
2023-05-12T16:17:24.850Z,101503.38
2023-05-12T16:19:53.241Z,101505.06
2023-05-12T16:22:20.102Z,101507.63
2023-05-12T16:24:47.125Z,101505.42
2023-05-12T16:27:14.076Z,101504.52
2023-05-12T16:29:44.907Z,101507.36
2023-05-12T16:32:11.909Z,101505.02
2023-05-12T16:34:39.100Z,101503.94
2023-05-12T16:37:06.150Z,101502.02
2023-05-12T16:39:35.244Z,101502.16
2023-05-12T16:42:02.807Z,101502.64
2023-05-12T16:44:29.760Z,101504.81
2023-05-12T16:46:56.488Z,101504.59
2023-05-12T16:49:23.328Z,101503.46
2023-05-12T16:51:50.169Z,101502.95
2023-05-12T16:54:17.957Z,101507.09
2023-05-12T16:56:44.888Z,101512.66
2023-05-12T16:59:11.830Z,101514.20
2023-05-12T17:01:39.040Z,101514.70
2023-05-12T17:04:11.344Z,101518.52
2023-05-12T17:06:38.183Z,101517.38
2023-05-12T17:09:05.337Z,101521.93
2023-05-12T17:11:32.177Z,101524.40
2023-05-12T17:14:00.355Z,101520.20
2023-05-12T17:16:27.148Z,101529.30
2023-05-12T17:21:23.947Z,101532.25
2023-05-12T17:23:50.790Z,101531.27
2023-05-12T17:26:17.647Z,101534.02
2023-05-12T17:28:44.924Z,101531.98
2023-05-12T17:31:12.059Z,101531.49
2023-05-12T17:33:39.085Z,101532.59
2023-05-12T17:36:12.364Z,101532.08
2023-05-12T17:38:40.682Z,101532.13
2023-05-12T17:41:07.617Z,101532.05
2023-05-12T17:43:34.543Z,101531.42
2023-05-12T17:46:01.919Z,101535.02
2023-05-12T17:48:32.630Z,101537.29
2023-05-12T17:51:00.812Z,101540.46
2023-05-12T17:53:27.558Z,101541.55
2023-05-12T17:55:55.219Z,101538.30
2023-05-12T17:58:22.682Z,101543.86
2023-05-12T18:00:50.139Z,101545.58
2023-05-12T18:03:22.534Z,101547.33
2023-05-12T18:05:50.972Z,101547.60
2023-05-12T18:08:18.144Z,101555.98
2023-05-12T18:10:46.296Z,101552.64
2023-05-12T18:13:14.909Z,101559.18
2023-05-12T18:15:41.925Z,101556.85
2023-05-12T18:18:09.625Z,101558.93
2023-05-12T18:20:36.437Z,101556.89
2023-05-12T18:23:03.679Z,101560.83
2023-05-12T18:25:30.521Z,101558.84
2023-05-12T18:27:57.620Z,101554.13
2023-05-12T18:30:24.420Z,101561.52
2023-05-12T18:32:51.432Z,101561.96
2023-05-12T18:35:19.238Z,101566.97
2023-05-12T18:37:46.267Z,101567.76
2023-05-12T18:40:13.015Z,101568.95
2023-05-12T18:42:40.156Z,101570.04
2023-05-12T18:45:07.619Z,101568.09
2023-05-12T18:47:34.502Z,101568.17
2023-05-12T18:50:01.709Z,101567.48
2023-05-12T18:52:28.447Z,101564.17
2023-05-12T18:54:55.293Z,101565.55
2023-05-12T18:57:22.239Z,101567.84
2023-05-12T18:59:49.080Z,101570.95
2023-05-12T19:02:16.946Z,101574.33
2023-05-12T19:04:44.016Z,101573.79
2023-05-12T19:07:14.725Z,101576.64
2023-05-12T19:09:42.594Z,101576.60
2023-05-12T19:12:12.627Z,101581.32
2023-05-12T19:14:40.380Z,101580.05
2023-05-12T19:17:07.219Z,101582.77
2023-05-12T19:19:34.469Z,101580.83
2023-05-12T19:22:02.151Z,101585.00
2023-05-12T19:24:29.623Z,101586.83
2023-05-12T19:26:57.044Z,101587.17
2023-05-12T19:29:25.727Z,101589.44
2023-05-12T19:31:53.350Z,101589.05
2023-05-12T19:34:20.964Z,101593.53
2023-05-12T19:36:48.025Z,101592.81
2023-05-12T19:39:14.853Z,101596.08
2023-05-12T19:41:41.791Z,101591.81
2023-05-12T19:44:08.622Z,101589.77
2023-05-12T19:46:35.671Z,101589.66
2023-05-12T19:49:05.268Z,101592.15
2023-05-12T19:51:32.533Z,101594.79
2023-05-12T19:53:59.497Z,101593.04
2023-05-12T19:56:26.734Z,101591.09
2023-05-12T19:58:53.673Z,101585.23
2023-05-12T20:01:20.686Z,101589.77
2023-05-12T20:03:47.613Z,101585.06
2023-05-12T20:06:14.509Z,101583.46
2023-05-12T20:08:41.349Z,101584.52
2023-05-12T20:11:08.406Z,101583.90
2023-05-12T20:13:35.349Z,101580.86
2023-05-12T20:16:02.385Z,101576.05
2023-05-12T20:18:29.240Z,101577.77
2023-05-12T20:20:56.089Z,101578.31
2023-05-12T20:23:22.917Z,101573.39
2023-05-12T20:25:52.006Z,101573.67
2023-05-12T20:28:20.814Z,101575.50
2023-05-12T20:30:47.884Z,101576.16
2023-05-12T20:33:14.888Z,101575.77
2023-05-12T20:35:41.945Z,101576.28
2023-05-12T20:38:08.810Z,101575.06
2023-05-12T20:40:35.827Z,101573.58
2023-05-12T20:43:02.592Z,101570.36
2023-05-12T20:45:29.410Z,101570.04
2023-05-12T20:47:56.527Z,101567.66
2023-05-12T20:50:23.917Z,101569.30
2023-05-12T20:52:50.777Z,101571.41
2023-05-12T20:55:17.577Z,101573.94
2023-05-12T20:57:44.449Z,101577.08
2023-05-12T21:00:13.015Z,101578.17
2023-05-12T21:02:40.298Z,101574.29
2023-05-12T21:05:07.320Z,101573.20
2023-05-12T21:07:34.168Z,101574.52
2023-05-12T21:10:02.570Z,101577.11
2023-05-12T21:12:29.590Z,101574.61
2023-05-12T21:14:56.636Z,101576.91
2023-05-12T21:17:23.538Z,101577.95
2023-05-12T21:19:50.527Z,101572.85
2023-05-12T21:22:17.368Z,101572.78
2023-05-12T21:24:44.516Z,101571.20
2023-05-12T21:27:11.460Z,101572.48
2023-05-12T21:29:38.204Z,101569.25
2023-05-12T21:32:05.596Z,101566.66
2023-05-12T21:34:33.115Z,101570.23
2023-05-12T21:37:00.073Z,101569.32
2023-05-12T21:39:27.927Z,101570.04
2023-05-12T21:41:54.968Z,101570.16
2023-05-12T21:44:21.842Z,101568.27
2023-05-12T21:46:48.762Z,101568.55
2023-05-12T21:49:15.630Z,101575.60
2023-05-12T21:51:42.359Z,101576.73
2023-05-12T21:54:09.488Z,101574.86
2023-05-12T21:56:36.258Z,101580.10
2023-05-12T21:59:02.978Z,101582.81
2023-05-12T22:01:30.167Z,101578.90
2023-05-12T22:03:58.358Z,101578.27
2023-05-12T22:06:25.654Z,101575.79
2023-05-12T22:08:53.619Z,101571.71
2023-05-12T22:11:21.188Z,101574.92
2023-05-12T22:13:48.745Z,101574.55
2023-05-12T22:16:16.433Z,101571.64
2023-05-12T22:18:43.639Z,101574.45
2023-05-12T22:21:12.238Z,101574.57
2023-05-12T22:23:41.227Z,101581.29
2023-05-12T22:26:08.904Z,101580.16
2023-05-12T22:28:35.833Z,101584.50
2023-05-12T22:31:02.921Z,101585.15
2023-05-12T22:33:30.649Z,101581.96
2023-05-12T22:36:00.972Z,101581.51
2023-05-12T22:38:27.916Z,101584.73
2023-05-12T22:40:54.768Z,101588.23
2023-05-12T22:43:21.902Z,101590.69
2023-05-12T22:45:52.557Z,101591.94
2023-05-12T22:48:19.801Z,101592.80
2023-05-12T22:50:47.064Z,101592.13
2023-05-12T22:53:14.806Z,101593.34
2023-05-12T22:55:41.656Z,101588.25
2023-05-12T22:58:09.921Z,101587.92
2023-05-12T23:00:37.304Z,101584.48
2023-05-12T23:03:04.490Z,101583.28
2023-05-12T23:05:31.483Z,101583.61
2023-05-12T23:07:58.310Z,101582.66
2023-05-12T23:10:25.258Z,101582.61
2023-05-12T23:12:52.122Z,101579.80
2023-05-12T23:15:19.047Z,101574.73
2023-05-12T23:17:45.933Z,101576.61
2023-05-12T23:20:13.245Z,101573.17
2023-05-12T23:22:40.198Z,101567.45
2023-05-12T23:25:07.748Z,101565.02
2023-05-12T23:27:35.716Z,101568.70
2023-05-12T23:30:02.873Z,101566.36
2023-05-12T23:32:29.906Z,101564.42
2023-05-12T23:34:56.749Z,101566.62
2023-05-12T23:37:24.483Z,101564.45
2023-05-12T23:39:51.359Z,101559.37
2023-05-12T23:42:18.223Z,101564.30
2023-05-12T23:44:45.144Z,101564.91
2023-05-12T23:47:11.992Z,101568.54
2023-05-12T23:49:38.828Z,101567.36
2023-05-12T23:52:06.182Z,101567.57
2023-05-12T23:54:33.024Z,101565.95
2023-05-12T23:56:59.872Z,101565.96
2023-05-12T23:59:26.708Z,101564.92
